createdAt,value
2022-11-04T00:02:08.097Z,99.11
2022-11-04T00:04:34.948Z,99.14
2022-11-04T00:07:01.684Z,99.10
2022-11-04T00:09:30.189Z,99.12
2022-11-04T00:12:15.651Z,99.13
2022-11-04T00:14:42.568Z,99.19
2022-11-04T00:17:24.539Z,99.33
2022-11-04T00:20:13.561Z,99.52
2022-11-04T00:22:59.851Z,99.43
2022-11-04T00:25:45.173Z,99.49
2022-11-04T00:28:34.078Z,99.44
2022-11-04T00:31:20.100Z,99.40
2022-11-04T00:33:48.717Z,99.36
2022-11-04T00:36:15.770Z,99.43
2022-11-04T00:38:42.556Z,99.36
2022-11-04T00:41:26.521Z,99.22
2022-11-04T00:43:54.737Z,99.16
2022-11-04T00:46:21.502Z,99.11
2022-11-04T00:48:48.273Z,98.94
2022-11-04T00:51:15.301Z,98.85
2022-11-04T00:53:42.070Z,98.83
2022-11-04T00:56:08.702Z,98.64
2022-11-04T00:58:35.482Z,98.47
2022-11-04T01:01:07.014Z,98.55
2022-11-04T01:03:33.777Z,98.42
2022-11-04T01:06:00.390Z,98.23
2022-11-04T01:08:27.083Z,98.48
2022-11-04T01:10:53.820Z,98.44
2022-11-04T01:13:20.689Z,98.30
2022-11-04T01:15:47.404Z,98.32
2022-11-04T01:18:14.010Z,98.39
2022-11-04T01:20:40.748Z,98.31
2022-11-04T01:23:07.392Z,98.28
2022-11-04T01:25:34.072Z,98.29
2022-11-04T01:28:01.010Z,98.22
2022-11-04T01:30:27.729Z,98.02
2022-11-04T01:32:54.455Z,97.98
2022-11-04T01:35:21.425Z,97.80
2022-11-04T01:37:48.124Z,97.75
2022-11-04T01:40:14.848Z,97.61
2022-11-04T01:42:41.506Z,97.52
2022-11-04T01:45:14.602Z,97.64
2022-11-04T01:47:47.715Z,97.58
2022-11-04T01:50:21.289Z,97.50
2022-11-04T01:53:08.205Z,97.41
2022-11-04T01:55:36.385Z,97.45
2022-11-04T01:58:05.758Z,97.48
2022-11-04T02:00:33.001Z,97.47
2022-11-04T02:03:09.450Z,97.42
2022-11-04T02:05:36.405Z,97.37
2022-11-04T02:08:03.966Z,97.27
2022-11-04T02:10:30.894Z,97.42
2022-11-04T02:12:58.710Z,97.35
2022-11-04T02:15:40.882Z,97.19
2022-11-04T02:18:20.987Z,97.12
2022-11-04T02:21:11.011Z,97.07
2022-11-04T02:24:01.740Z,97.01
2022-11-04T02:26:46.979Z,96.86
2022-11-04T02:29:38.326Z,96.96
2022-11-04T02:32:26.427Z,96.75
2022-11-04T02:34:59.671Z,96.81
2022-11-04T02:37:37.634Z,96.75
2022-11-04T02:40:16.409Z,96.85
2022-11-04T02:42:52.723Z,96.76
2022-11-04T02:45:22.482Z,96.76
2022-11-04T02:47:52.035Z,96.86
2022-11-04T02:50:25.867Z,96.78
2022-11-04T02:53:06.567Z,96.94
2022-11-04T02:55:36.659Z,96.87
2022-11-04T02:58:05.496Z,96.63
2022-11-04T03:00:32.205Z,96.39
2022-11-04T03:03:04.355Z,96.33
2022-11-04T03:05:33.946Z,96.20
2022-11-04T03:08:09.439Z,96.18
2022-11-04T03:10:38.587Z,95.97
2022-11-04T03:13:16.343Z,96.19
2022-11-04T03:15:54.225Z,96.12
2022-11-04T03:18:33.494Z,96.14
2022-11-04T03:21:02.350Z,96.04
2022-11-04T03:23:29.090Z,95.83
2022-11-04T03:25:58.273Z,95.87
2022-11-04T03:28:31.849Z,95.99
2022-11-04T03:30:59.580Z,96.04
2022-11-04T03:33:39.489Z,96.09
2022-11-04T03:36:08.749Z,96.10
2022-11-04T03:38:36.301Z,95.95
2022-11-04T03:41:03.615Z,95.87
2022-11-04T03:43:30.338Z,95.95
2022-11-04T03:45:57.022Z,96.14
2022-11-04T03:48:23.758Z,96.05
2022-11-04T03:50:51.228Z,96.02
2022-11-04T03:53:22.655Z,96.08
2022-11-04T03:56:20.551Z,95.93
2022-11-04T03:58:50.485Z,95.95
2022-11-04T04:01:26.513Z,95.53
2022-11-04T04:03:58.059Z,95.30
2022-11-04T04:06:30.183Z,95.56
2022-11-04T04:09:03.030Z,95.49
2022-11-04T04:11:41.266Z,95.57
2022-11-04T04:14:40.006Z,95.47
2022-11-04T04:17:20.651Z,95.43
2022-11-04T04:19:51.216Z,95.41
2022-11-04T04:22:23.249Z,95.31
2022-11-04T04:25:10.973Z,95.35
2022-11-04T04:27:37.692Z,95.27
2022-11-04T04:30:14.485Z,95.21
2022-11-04T04:33:03.225Z,95.05
2022-11-04T04:35:43.097Z,95.26
2022-11-04T04:38:44.189Z,95.28
2022-11-04T04:41:39.299Z,95.06
2022-11-04T04:44:49.057Z,95.23
2022-11-04T04:47:20.042Z,95.18
2022-11-04T04:49:53.849Z,95.11
2022-11-04T04:52:20.844Z,95.06
2022-11-04T04:54:47.597Z,94.98
2022-11-04T04:57:14.255Z,94.93
2022-11-04T04:59:40.997Z,94.98
2022-11-04T05:02:07.939Z,95.09
2022-11-04T05:04:34.735Z,94.99
2022-11-04T05:07:01.605Z,94.79
2022-11-04T05:09:28.326Z,94.61
2022-11-04T05:11:55.065Z,94.72
2022-11-04T05:14:21.719Z,94.76
2022-11-04T05:16:48.428Z,94.78
2022-11-04T05:19:15.190Z,94.70
2022-11-04T05:21:41.829Z,94.65
2022-11-04T05:24:08.611Z,94.67
2022-11-04T05:26:35.234Z,94.56
2022-11-04T05:29:02.045Z,94.59
2022-11-04T05:31:30.329Z,94.62
2022-11-04T05:33:58.952Z,94.57
2022-11-04T05:36:25.800Z,94.60
2022-11-04T05:38:53.134Z,94.86
2022-11-04T05:41:26.080Z,94.86
2022-11-04T05:43:57.232Z,94.85
2022-11-04T05:46:24.376Z,94.82
2022-11-04T05:48:51.123Z,94.76
2022-11-04T05:51:18.618Z,94.89
2022-11-04T05:53:45.330Z,94.90
2022-11-04T05:56:12.072Z,94.60
2022-11-04T05:58:38.704Z,94.45
2022-11-04T06:01:24.105Z,94.35
2022-11-04T06:03:51.817Z,94.65
2022-11-04T06:06:18.625Z,94.71
2022-11-04T06:08:45.532Z,94.40
2022-11-04T06:11:12.328Z,94.52
2022-11-04T06:13:39.042Z,94.59
2022-11-04T06:17:03.896Z,94.82
2022-11-04T06:19:30.765Z,95.00
2022-11-04T06:21:57.429Z,95.20
2022-11-04T06:24:24.213Z,95.09
2022-11-04T06:26:50.926Z,95.25
2022-11-04T06:29:17.667Z,95.39
2022-11-04T06:31:44.330Z,95.57
2022-11-04T06:34:11.560Z,95.65
2022-11-04T06:36:38.428Z,95.75
2022-11-04T06:39:06.446Z,95.80
2022-11-04T06:41:33.298Z,95.82
2022-11-04T06:44:00.026Z,95.89
2022-11-04T06:46:39.535Z,96.04
2022-11-04T06:49:07.216Z,96.03
2022-11-04T06:51:34.176Z,95.95
2022-11-04T06:54:00.984Z,95.75
2022-11-04T06:56:27.652Z,95.65
2022-11-04T06:58:55.013Z,95.46
2022-11-04T07:01:23.311Z,95.33
2022-11-04T07:03:54.521Z,95.19
2022-11-04T07:06:21.392Z,94.94
2022-11-04T07:08:48.931Z,94.90
2022-11-04T07:11:17.134Z,95.01
2022-11-04T07:13:43.868Z,95.03
2022-11-04T07:16:10.529Z,95.01
2022-11-04T07:18:37.316Z,94.85
2022-11-04T07:21:09.735Z,94.71
2022-11-04T07:23:36.845Z,94.60
2022-11-04T07:26:04.470Z,94.63
2022-11-04T07:28:31.220Z,94.94
2022-11-04T07:31:00.989Z,94.81
2022-11-04T07:33:27.894Z,94.53
2022-11-04T07:35:57.984Z,94.43
2022-11-04T07:38:25.254Z,94.31
2022-11-04T07:40:51.904Z,94.37
2022-11-04T07:43:18.646Z,93.95
2022-11-04T07:45:45.879Z,93.90
2022-11-04T07:48:12.643Z,93.95
2022-11-04T07:50:40.612Z,93.71
2022-11-04T07:53:08.062Z,93.44
2022-11-04T07:55:42.866Z,93.39
2022-11-04T07:58:10.725Z,93.46
2022-11-04T08:00:37.485Z,93.14
2022-11-04T08:03:04.135Z,92.90
2022-11-04T08:05:30.862Z,92.71
2022-11-04T08:07:57.953Z,92.72
2022-11-04T08:10:24.862Z,92.59
2022-11-04T08:12:52.393Z,92.28
2022-11-04T08:15:19.118Z,92.12
2022-11-04T08:17:45.733Z,91.76
2022-11-04T08:20:12.719Z,91.56
2022-11-04T08:22:39.441Z,91.33
2022-11-04T08:25:06.317Z,91.16
2022-11-04T08:27:33.172Z,91.01
2022-11-04T08:29:59.789Z,91.03
2022-11-04T08:32:26.752Z,90.72
2022-11-04T08:34:53.577Z,90.50
2022-11-04T08:37:20.320Z,90.20
2022-11-04T08:39:47.038Z,90.19
2022-11-04T08:42:13.753Z,90.13
2022-11-04T08:44:40.655Z,89.88
2022-11-04T08:47:07.357Z,90.12
2022-11-04T08:49:37.581Z,90.02
2022-11-04T08:52:04.451Z,90.02
2022-11-04T08:54:31.179Z,89.89
2022-11-04T08:56:58.203Z,89.89
2022-11-04T08:59:25.253Z,89.51
2022-11-04T09:01:52.160Z,89.49
2022-11-04T09:04:19.926Z,89.24
2022-11-04T09:06:46.777Z,89.31
2022-11-04T09:09:15.030Z,89.28
2022-11-04T09:11:42.421Z,89.21
2022-11-04T09:14:09.364Z,89.15
2022-11-04T09:16:36.475Z,89.10
2022-11-04T09:19:03.465Z,88.93
2022-11-04T09:21:30.177Z,88.89
2022-11-04T09:23:57.016Z,88.85
2022-11-04T09:26:24.119Z,88.90
2022-11-04T09:28:57.876Z,88.89
2022-11-04T09:31:26.059Z,88.60
2022-11-04T09:33:54.179Z,88.42
2022-11-04T09:36:20.904Z,88.13
2022-11-04T09:38:47.565Z,88.04
2022-11-04T09:41:32.635Z,87.93
2022-11-04T09:44:07.594Z,87.69
2022-11-04T09:46:34.287Z,87.52
2022-11-04T09:49:01.513Z,87.67
2022-11-04T09:51:52.557Z,87.75
2022-11-04T09:54:25.905Z,87.54
2022-11-04T09:56:53.234Z,87.51
2022-11-04T09:59:29.045Z,87.48
2022-11-04T10:02:22.623Z,87.48
2022-11-04T10:05:46.017Z,87.67
2022-11-04T10:08:39.143Z,87.69
2022-11-04T10:11:21.513Z,87.64
2022-11-04T10:14:12.543Z,87.35
2022-11-04T10:17:09.374Z,87.37
2022-11-04T10:19:52.108Z,87.42
2022-11-04T10:22:38.643Z,87.50
2022-11-04T10:25:15.648Z,87.67
2022-11-04T10:27:44.008Z,87.47
2022-11-04T10:30:23.780Z,87.64
2022-11-04T10:33:21.871Z,87.86
2022-11-04T10:35:50.844Z,87.67
2022-11-04T10:38:18.938Z,87.73
2022-11-04T10:40:51.086Z,87.65
2022-11-04T10:43:44.317Z,87.56
2022-11-04T10:46:23.403Z,87.54
2022-11-04T10:49:09.875Z,87.63
2022-11-04T10:51:36.617Z,87.57
2022-11-04T10:54:05.258Z,87.43
2022-11-04T10:56:34.206Z,87.54
2022-11-04T10:59:04.780Z,87.39
2022-11-04T11:01:33.551Z,87.40
2022-11-04T11:04:01.024Z,87.40
2022-11-04T11:06:28.686Z,87.31
2022-11-04T11:09:00.200Z,87.11
2022-11-04T11:12:48.708Z,86.99
2022-11-04T11:15:01.538Z,86.99
2022-11-04T11:17:34.459Z,86.82
2022-11-04T11:20:22.386Z,86.94
2022-11-04T11:22:50.413Z,86.95
2022-11-04T11:25:29.833Z,86.74
2022-11-04T11:28:02.576Z,86.88
2022-11-04T11:30:32.080Z,86.61
2022-11-04T11:33:07.257Z,86.68
2022-11-04T11:35:42.133Z,86.69
2022-11-04T11:38:21.386Z,86.40
2022-11-04T11:41:18.292Z,86.08
2022-11-04T11:43:35.629Z,86.19
2022-11-04T11:46:03.335Z,86.09
2022-11-04T11:48:43.727Z,85.87
2022-11-04T11:51:14.136Z,85.56
2022-11-04T11:53:45.753Z,85.60
2022-11-04T11:56:23.894Z,85.41
2022-11-04T12:02:07.323Z,85.47
2022-11-04T12:11:00.839Z,85.51
2022-11-04T12:13:30.695Z,85.46
2022-11-04T12:16:13.433Z,85.57
2022-11-04T12:18:52.552Z,85.15
2022-11-04T12:21:33.300Z,84.91
2022-11-04T12:24:02.315Z,84.15
2022-11-04T12:26:48.129Z,84.19
2022-11-04T12:29:27.800Z,84.06
2022-11-04T12:32:20.927Z,83.88
2022-11-04T12:35:11.747Z,84.18
2022-11-04T12:38:11.468Z,84.16
2022-11-04T12:41:18.788Z,84.29
2022-11-04T12:43:58.937Z,84.35
2022-11-04T12:46:32.520Z,84.40
2022-11-04T12:49:07.390Z,84.51
2022-11-04T12:51:47.288Z,84.48
2022-11-04T12:54:52.740Z,84.49
2022-11-04T12:57:46.908Z,84.15
2022-11-04T13:00:14.440Z,83.64
2022-11-04T13:02:54.758Z,83.80
2022-11-04T13:05:21.776Z,84.17
2022-11-04T13:08:14.664Z,84.28
2022-11-04T13:10:53.420Z,84.05
2022-11-04T13:13:31.276Z,84.06
2022-11-04T13:15:58.743Z,84.17
2022-11-04T13:18:26.665Z,84.16
2022-11-04T13:20:59.318Z,83.84
2022-11-04T13:23:36.154Z,83.74
2022-11-04T13:26:04.039Z,83.85
2022-11-04T13:28:30.732Z,84.05
2022-11-04T13:31:03.340Z,83.99
2022-11-04T13:33:51.788Z,83.83
2022-11-04T13:36:33.719Z,83.81
2022-11-04T13:39:06.082Z,84.17
2022-11-04T13:41:51.700Z,84.26
2022-11-04T13:44:26.791Z,84.41
2022-11-04T13:46:55.716Z,84.48
2022-11-04T13:49:30.544Z,84.69
2022-11-04T13:52:08.248Z,84.93
2022-11-04T13:54:57.412Z,84.92
2022-11-04T13:57:25.965Z,84.89
2022-11-04T14:00:10.766Z,85.07
2022-11-04T14:02:47.758Z,85.12
2022-11-04T14:05:29.919Z,85.30
2022-11-04T14:08:00.896Z,85.53
2022-11-04T14:10:44.206Z,85.62
2022-11-04T14:13:34.135Z,85.53
2022-11-04T14:16:07.407Z,85.40
2022-11-04T14:18:35.694Z,85.50
2022-11-04T14:21:15.649Z,85.23
2022-11-04T14:23:44.094Z,84.98
2022-11-04T14:26:12.144Z,85.26
2022-11-04T14:28:38.965Z,85.57
2022-11-04T14:31:06.403Z,85.64
2022-11-04T14:33:53.689Z,85.57
2022-11-04T14:36:20.698Z,85.70
2022-11-04T14:38:57.982Z,85.71
2022-11-04T14:41:30.814Z,85.52
2022-11-04T14:44:00.912Z,85.86
2022-11-04T14:46:34.249Z,85.93
2022-11-04T14:49:03.626Z,86.10
2022-11-04T14:51:31.893Z,86.13
2022-11-04T14:54:18.951Z,86.20
2022-11-04T14:56:47.013Z,86.37
2022-11-04T14:59:21.551Z,86.54
2022-11-04T15:01:49.348Z,86.54
2022-11-04T15:04:30.888Z,86.64
2022-11-04T15:07:01.272Z,86.67
2022-11-04T15:09:41.422Z,86.80
2022-11-04T15:12:31.098Z,86.72
2022-11-04T15:14:58.007Z,86.62
2022-11-04T15:17:26.832Z,86.65
2022-11-04T15:19:54.476Z,86.54
2022-11-04T15:22:22.220Z,86.41
2022-11-04T15:24:50.978Z,86.30
2022-11-04T15:27:20.856Z,86.12
2022-11-04T15:29:58.994Z,85.99
2022-11-04T15:32:26.005Z,85.95
2022-11-04T15:34:53.429Z,86.07
2022-11-04T15:37:20.345Z,86.29
2022-11-04T15:39:48.328Z,86.13
2022-11-04T15:42:40.326Z,85.67
2022-11-04T15:45:27.205Z,85.31
2022-11-04T15:48:25.845Z,85.48
2022-11-04T15:51:19.674Z,85.45
2022-11-04T15:53:48.045Z,85.20
2022-11-04T15:56:16.535Z,85.17
2022-11-04T15:58:44.190Z,85.06
2022-11-04T16:01:14.904Z,85.24
2022-11-04T16:03:51.106Z,85.23
2022-11-04T16:06:17.889Z,85.31
2022-11-04T16:08:48.539Z,85.52
2022-11-04T16:11:19.580Z,85.55
2022-11-04T16:13:46.775Z,85.76
2022-11-04T16:16:19.523Z,85.71
2022-11-04T16:18:51.838Z,85.88
2022-11-04T16:21:37.182Z,85.69
2022-11-04T16:24:09.494Z,85.70
2022-11-04T16:26:41.237Z,85.68
2022-11-04T16:29:09.879Z,85.77
2022-11-04T16:31:36.962Z,85.76
2022-11-04T16:34:03.864Z,85.66
2022-11-04T16:36:35.331Z,85.70
2022-11-04T16:39:04.552Z,85.47
2022-11-04T16:41:33.630Z,85.47
2022-11-04T16:44:00.356Z,85.63
2022-11-04T16:46:27.043Z,85.48
2022-11-04T16:48:54.170Z,85.50
2022-11-04T16:51:21.926Z,85.58
2022-11-04T16:53:50.231Z,85.69
2022-11-04T16:56:17.805Z,85.79
2022-11-04T16:58:44.866Z,85.75
2022-11-04T17:01:13.231Z,85.84
2022-11-04T17:03:40.883Z,85.72
2022-11-04T17:06:07.941Z,85.81
2022-11-04T17:08:34.668Z,85.89
2022-11-04T17:11:01.420Z,85.95
2022-11-04T17:13:33.457Z,85.86
2022-11-04T17:16:02.940Z,85.97
2022-11-04T17:18:33.437Z,85.84
2022-11-04T17:21:01.402Z,85.74
2022-11-04T17:23:28.197Z,85.98
2022-11-04T17:25:54.788Z,86.11
2022-11-04T17:28:21.600Z,86.18
2022-11-04T17:30:48.261Z,86.28
2022-11-04T17:33:15.696Z,86.30
2022-11-04T17:35:43.310Z,86.43
2022-11-04T17:38:10.994Z,86.43
2022-11-04T17:40:57.951Z,86.38
2022-11-04T17:43:43.844Z,86.44
2022-11-04T17:46:29.615Z,86.45
2022-11-04T17:48:56.312Z,86.39
2022-11-04T17:51:23.156Z,86.33
2022-11-04T17:53:49.879Z,86.29
2022-11-04T17:56:20.382Z,86.13
2022-11-04T17:58:47.615Z,86.10
2022-11-04T18:01:15.870Z,86.11
2022-11-04T18:03:42.847Z,86.12
2022-11-04T18:06:10.033Z,85.76
2022-11-04T18:08:36.757Z,85.73
2022-11-04T18:11:04.140Z,85.65
2022-11-04T18:13:31.023Z,85.61
2022-11-04T18:15:57.790Z,85.59
2022-11-04T18:18:24.439Z,85.40
2022-11-04T18:20:51.134Z,85.41
2022-11-04T18:23:18.144Z,85.27
2022-11-04T18:25:50.454Z,85.21
2022-11-04T18:28:17.443Z,84.67
2022-11-04T18:30:44.180Z,84.43
2022-11-04T18:34:11.493Z,84.28
2022-11-04T18:36:38.541Z,84.52
2022-11-04T18:39:09.195Z,84.57
2022-11-04T18:41:36.231Z,84.74
2022-11-04T18:44:03.175Z,84.74
2022-11-04T18:46:29.929Z,84.86
2022-11-04T18:48:56.764Z,84.81
2022-11-04T18:51:23.558Z,84.67
2022-11-04T18:53:50.690Z,84.60
2022-11-04T18:56:19.158Z,84.49
2022-11-04T18:58:46.174Z,84.51
2022-11-04T19:01:15.283Z,84.46
2022-11-04T19:03:42.239Z,84.42
2022-11-04T19:06:09.554Z,84.36
2022-11-04T19:08:36.345Z,84.52
2022-11-04T19:11:08.933Z,84.45
2022-11-04T19:13:35.702Z,84.77
2022-11-04T19:16:06.227Z,84.62
2022-11-04T19:18:33.076Z,84.28
2022-11-04T19:21:03.808Z,84.10
2022-11-04T19:23:32.212Z,84.02
2022-11-04T19:26:02.154Z,83.95
2022-11-04T19:28:44.526Z,83.97
2022-11-04T19:31:15.738Z,84.00
2022-11-04T19:33:42.900Z,84.02
2022-11-04T19:36:10.463Z,83.91
2022-11-04T19:38:37.721Z,83.93
2022-11-04T19:41:05.927Z,83.99
2022-11-04T19:43:32.681Z,83.86
2022-11-04T19:46:04.064Z,83.78
2022-11-04T19:48:31.488Z,83.96
2022-11-04T19:50:58.366Z,83.78
2022-11-04T19:53:25.149Z,83.72
2022-11-04T19:55:53.331Z,83.78
2022-11-04T19:58:20.149Z,83.79
2022-11-04T20:00:47.215Z,83.75
2022-11-04T20:03:14.533Z,83.33
2022-11-04T20:05:42.324Z,83.02
2022-11-04T20:08:09.640Z,83.21
2022-11-04T20:10:37.899Z,83.18
2022-11-04T20:13:23.048Z,83.36
2022-11-04T20:15:49.935Z,83.52
2022-11-04T20:18:16.638Z,83.63
2022-11-04T20:20:43.511Z,83.65
2022-11-04T20:23:10.456Z,83.91
2022-11-04T20:25:37.115Z,84.12
2022-11-04T20:28:04.024Z,84.41
2022-11-04T20:30:30.797Z,84.33
2022-11-04T20:32:57.451Z,84.40
2022-11-04T20:35:24.162Z,84.33
2022-11-04T20:37:50.807Z,84.26
2022-11-04T20:40:17.686Z,84.47
2022-11-04T20:42:47.899Z,84.34
2022-11-04T20:45:15.925Z,84.43
2022-11-04T20:47:42.706Z,84.41
2022-11-04T20:50:09.807Z,84.42
2022-11-04T20:52:37.261Z,84.36
2022-11-04T20:55:07.376Z,84.41
2022-11-04T20:57:34.479Z,84.28
2022-11-04T21:00:01.224Z,84.00
2022-11-04T21:02:28.234Z,83.69
2022-11-04T21:04:55.148Z,83.66
2022-11-04T21:07:24.160Z,83.47
2022-11-04T21:09:51.361Z,83.21
2022-11-04T21:12:19.193Z,83.04
2022-11-04T21:14:46.081Z,82.99
2022-11-04T21:17:12.953Z,82.78
2022-11-04T21:19:39.695Z,82.80
2022-11-04T21:22:06.456Z,82.82
2022-11-04T21:24:39.003Z,82.75
2022-11-04T21:27:06.304Z,82.54
2022-11-04T21:29:33.052Z,82.55
2022-11-04T21:31:59.769Z,82.57
2022-11-04T21:34:26.513Z,82.73
2022-11-04T21:36:53.419Z,82.55
2022-11-04T21:39:20.326Z,82.37
2022-11-04T21:41:47.088Z,82.38
2022-11-04T21:44:13.947Z,82.61
2022-11-04T21:46:40.633Z,82.70
2022-11-04T21:49:07.532Z,82.91
2022-11-04T21:51:34.794Z,82.60
2022-11-04T21:54:04.897Z,82.35
2022-11-04T21:56:34.612Z,82.57
2022-11-04T21:59:01.680Z,82.96
2022-11-04T22:01:29.187Z,83.06
2022-11-04T22:03:59.415Z,82.91
2022-11-04T22:06:33.184Z,83.19
2022-11-04T22:09:01.353Z,83.27
2022-11-04T22:11:29.965Z,83.65
2022-11-04T22:14:00.389Z,83.99
2022-11-04T22:16:28.768Z,83.82
2022-11-04T22:18:56.913Z,83.46
2022-11-04T22:21:24.624Z,83.39
2022-11-04T22:23:51.591Z,83.42
2022-11-04T22:26:24.293Z,83.83
2022-11-04T22:28:51.378Z,83.65
2022-11-04T22:31:26.268Z,83.86
2022-11-04T22:33:53.133Z,84.26
2022-11-04T22:36:20.189Z,84.35
2022-11-04T22:38:47.071Z,84.66
2022-11-04T22:41:14.806Z,84.90
2022-11-04T22:43:41.559Z,85.03
2022-11-04T22:46:12.517Z,85.07
2022-11-04T22:48:39.210Z,85.50
2022-11-04T22:51:07.047Z,85.62
2022-11-04T22:53:33.800Z,85.67
2022-11-04T22:56:00.677Z,85.82
2022-11-04T22:58:28.019Z,85.68
2022-11-04T23:00:56.648Z,85.53
2022-11-04T23:03:23.554Z,85.17
2022-11-04T23:05:56.730Z,85.28
2022-11-04T23:08:24.293Z,85.19
2022-11-04T23:11:10.227Z,85.39
2022-11-04T23:13:55.719Z,85.29
2022-11-04T23:16:41.220Z,84.73
2022-11-04T23:19:07.932Z,84.50
2022-11-04T23:21:53.281Z,84.56
2022-11-04T23:24:38.705Z,84.46
2022-11-04T23:27:05.463Z,84.44
2022-11-04T23:29:50.914Z,84.36
2022-11-04T23:32:19.244Z,84.13
2022-11-04T23:35:06.493Z,84.51
2022-11-04T23:37:33.271Z,84.43
2022-11-04T23:39:59.996Z,84.35
2022-11-04T23:42:26.714Z,84.67
2022-11-04T23:45:12.825Z,84.55
2022-11-04T23:48:04.888Z,84.82
2022-11-04T23:50:51.787Z,85.31
2022-11-04T23:53:38.028Z,85.20
2022-11-04T23:56:24.049Z,85.04
2022-11-04T23:59:09.577Z,84.98
